createdAt,value
2018-10-21T05:41:40.375Z,0
2018-10-21T05:41:59.887Z,0
2018-10-21T05:42:19.397Z,0
2018-10-21T05:42:38.952Z,0
2018-10-21T05:42:58.497Z,0
2018-10-21T05:43:18.014Z,0
2018-10-21T05:43:37.515Z,0
2018-10-21T05:43:57.035Z,0
2018-10-21T05:44:16.540Z,0
2018-10-21T05:44:36.065Z,0
2018-10-21T05:44:55.580Z,0
2018-10-21T05:45:16.083Z,0
2018-10-21T05:45:35.615Z,0
2018-10-21T05:45:56.216Z,0
2018-10-21T05:46:15.790Z,0
2018-10-21T05:46:35.191Z,0
2018-10-21T05:46:54.753Z,0
2018-10-21T05:47:14.408Z,0
2018-10-21T05:47:33.839Z,0
2018-10-21T05:47:54.347Z,0
2018-10-21T05:48:13.848Z,0
2018-10-21T05:48:33.374Z,0
2018-10-21T05:48:52.875Z,0
2018-10-21T05:49:12.399Z,0
2018-10-21T05:49:31.910Z,0
2018-10-21T05:49:51.427Z,0
2018-10-21T05:50:11.312Z,0
2018-10-21T05:50:31.006Z,0
2018-10-21T05:50:50.541Z,0
2018-10-21T05:51:10.052Z,0
2018-10-21T05:51:29.575Z,0
2018-10-21T05:51:49.182Z,0
2018-10-21T05:52:08.742Z,0
2018-10-21T05:52:28.224Z,0
2018-10-21T05:52:47.830Z,0
2018-10-21T05:53:07.336Z,0
2018-10-21T05:53:26.866Z,0
2018-10-21T05:53:46.401Z,0
2018-10-21T05:54:05.899Z,0
2018-10-21T05:54:25.414Z,0
2018-10-21T05:54:44.976Z,0
2018-10-21T05:55:04.477Z,0
2018-10-21T05:55:23.999Z,0
2018-10-21T05:55:43.513Z,0
2018-10-21T05:56:03.053Z,0
2018-10-21T05:56:22.479Z,0
2018-10-21T05:56:41.997Z,0
2018-10-21T05:57:01.560Z,0
2018-10-21T05:57:22.053Z,0
2018-10-21T05:57:41.590Z,0
2018-10-21T05:58:02.151Z,0
2018-10-21T05:58:21.619Z,0
2018-10-21T05:58:41.051Z,0
2018-10-21T05:59:00.553Z,0
2018-10-21T05:59:20.042Z,0
2018-10-21T05:59:40.552Z,0
2018-10-21T06:00:00.087Z,0
2018-10-21T06:00:19.609Z,0
2018-10-21T06:00:40.098Z,0
2018-10-21T06:00:59.583Z,0
2018-10-21T06:01:19.093Z,0
2018-10-21T06:01:38.594Z,0
2018-10-21T06:01:58.158Z,0
2018-10-21T06:02:17.661Z,0
2018-10-21T06:02:37.170Z,0
2018-10-21T06:02:56.769Z,0
2018-10-21T06:03:16.186Z,0
2018-10-21T06:03:35.729Z,0
2018-10-21T06:03:55.271Z,0
2018-10-21T06:04:14.878Z,0
2018-10-21T06:04:35.325Z,0
2018-10-21T06:04:54.844Z,0
2018-10-21T06:05:14.346Z,0
2018-10-21T06:05:33.843Z,0
2018-10-21T06:05:53.351Z,0
2018-10-21T06:06:12.862Z,0
2018-10-21T06:06:32.365Z,0
2018-10-21T06:06:51.857Z,0
2018-10-21T06:07:11.410Z,0
2018-10-21T06:07:30.916Z,0
2018-10-21T06:07:50.508Z,0
2018-10-21T06:08:10.110Z,0
2018-10-21T06:08:29.618Z,0
2018-10-21T06:08:49.123Z,0
2018-10-21T06:09:08.628Z,0
2018-10-21T06:09:29.099Z,0
2018-10-21T06:09:48.632Z,0
2018-10-21T06:10:08.171Z,0
2018-10-21T06:10:27.658Z,0
2018-10-21T06:10:47.188Z,0
2018-10-21T06:11:06.752Z,0
2018-10-21T06:11:26.353Z,0
2018-10-21T06:11:45.848Z,0
2018-10-21T06:12:06.544Z,0
2018-10-21T06:12:27.103Z,0
2018-10-21T06:12:46.611Z,0
2018-10-21T06:13:24.791Z,0
2018-10-21T06:13:44.316Z,0
2018-10-21T06:14:04.863Z,0
2018-10-21T06:14:25.353Z,0
2018-10-21T06:14:44.873Z,0
2018-10-21T06:15:04.382Z,0
2018-10-21T06:15:23.880Z,0
2018-10-21T06:15:43.480Z,0
2018-10-21T06:16:02.999Z,0
2018-10-21T06:16:22.563Z,0
2018-10-21T06:16:42.101Z,0
2018-10-21T06:17:01.599Z,0
2018-10-21T06:17:21.198Z,0
2018-10-21T06:17:40.692Z,0
2018-10-21T06:18:00.200Z,0
2018-10-21T06:18:19.699Z,0
2018-10-21T06:18:39.207Z,0
2018-10-21T06:18:58.733Z,0
2018-10-21T06:19:18.247Z,0
2018-10-21T06:19:37.763Z,0
2018-10-21T06:19:57.268Z,0
2018-10-21T06:20:16.791Z,0
2018-10-21T06:20:36.296Z,0
2018-10-21T06:20:56.798Z,0
2018-10-21T06:21:16.300Z,0
2018-10-21T06:21:35.842Z,0
2018-10-21T06:21:56.363Z,0
2018-10-21T06:22:16.108Z,0
2018-10-21T06:22:35.471Z,0
2018-10-21T06:22:54.963Z,0
2018-10-21T06:23:14.488Z,0
2018-10-21T06:23:34.041Z,0
2018-10-21T06:23:53.497Z,0
2018-10-21T06:24:13.011Z,0
2018-10-21T06:24:32.537Z,0
2018-10-21T06:24:52.036Z,0
2018-10-21T06:25:11.544Z,0
2018-10-21T06:25:31.083Z,0
2018-10-21T06:25:50.591Z,0
2018-10-21T06:26:11.066Z,0
2018-10-21T06:26:30.570Z,0
2018-10-21T06:26:50.075Z,0
2018-10-21T06:27:09.572Z,0
2018-10-21T06:27:29.169Z,0
2018-10-21T06:27:48.792Z,0
2018-10-21T06:28:08.181Z,0
2018-10-21T06:28:27.689Z,0
2018-10-21T06:28:47.201Z,0
2018-10-21T06:29:06.714Z,0
2018-10-21T06:29:26.214Z,0
2018-10-21T06:29:45.758Z,0
2018-10-21T06:30:05.257Z,0
2018-10-21T06:30:24.804Z,0
2018-10-21T06:30:44.357Z,0
2018-10-21T06:31:03.900Z,0
2018-10-21T06:31:23.400Z,0
2018-10-21T06:31:42.907Z,0
2018-10-21T06:32:02.417Z,5.625
2018-10-21T06:32:21.974Z,5.625
2018-10-21T06:32:41.476Z,5.625
2018-10-21T06:33:01.044Z,5.625
2018-10-21T06:33:20.531Z,5.625
2018-10-21T06:33:40.038Z,5.625
2018-10-21T06:33:59.556Z,5.625
2018-10-21T06:34:19.075Z,5.625
2018-10-21T06:34:38.579Z,5.625
2018-10-21T06:34:58.092Z,5.625
2018-10-21T06:35:17.616Z,5.625
2018-10-21T06:35:37.153Z,5.625
2018-10-21T06:35:56.667Z,5.625
2018-10-21T06:36:16.166Z,5.625
2018-10-21T06:36:35.727Z,5.625
2018-10-21T06:36:55.212Z,5.625
2018-10-21T06:37:14.759Z,5.625
2018-10-21T06:37:34.367Z,5.625
2018-10-21T06:37:53.895Z,5.625
2018-10-21T06:38:13.421Z,5.625
2018-10-21T06:38:32.926Z,5.625
2018-10-21T06:38:52.431Z,5.625
2018-10-21T06:39:12.060Z,5.625
2018-10-21T06:39:31.439Z,11.25
2018-10-21T06:39:50.962Z,11.25
2018-10-21T06:40:10.459Z,11.25
2018-10-21T06:40:29.963Z,11.25
2018-10-21T06:40:49.513Z,11.25
2018-10-21T06:41:10.021Z,11.25
2018-10-21T06:41:29.555Z,11.25
2018-10-21T06:41:49.072Z,11.25
2018-10-21T06:42:08.643Z,11.25
2018-10-21T06:42:28.230Z,11.25
2018-10-21T06:42:47.748Z,11.25
2018-10-21T06:43:07.263Z,11.25
2018-10-21T06:43:26.764Z,11.25
2018-10-21T06:43:47.256Z,11.25
2018-10-21T06:44:07.789Z,11.25
2018-10-21T06:44:27.319Z,11.25
2018-10-21T06:44:47.799Z,11.25
2018-10-21T06:45:07.360Z,11.25
2018-10-21T06:45:27.016Z,11.25
2018-10-21T06:45:46.410Z,11.25
2018-10-21T06:46:05.827Z,11.25
2018-10-21T06:46:26.327Z,11.25
2018-10-21T06:46:45.833Z,11.25
2018-10-21T06:47:06.323Z,11.25
2018-10-21T06:47:25.861Z,11.25
2018-10-21T06:47:45.415Z,11.25
2018-10-21T06:48:04.921Z,11.25
2018-10-21T06:48:24.480Z,11.25
2018-10-21T06:48:43.936Z,16.875
2018-10-21T06:49:04.450Z,16.875
2018-10-21T06:49:23.958Z,16.875
2018-10-21T06:49:43.488Z,16.875
2018-10-21T06:50:03.001Z,16.875
2018-10-21T06:50:22.532Z,16.875
2018-10-21T06:50:43.021Z,16.875
2018-10-21T06:51:02.519Z,16.875
2018-10-21T06:51:22.025Z,16.875
2018-10-21T06:51:41.552Z,16.875
2018-10-21T06:52:01.070Z,16.875
2018-10-21T06:52:20.560Z,16.875
2018-10-21T06:52:40.136Z,16.875
2018-10-21T06:52:59.661Z,16.875
2018-10-21T06:53:19.161Z,16.875
2018-10-21T06:53:38.659Z,16.875
2018-10-21T06:53:58.180Z,16.875
2018-10-21T06:54:17.677Z,16.875
2018-10-21T06:54:37.175Z,16.875
2018-10-21T06:54:57.671Z,16.875
2018-10-21T06:55:17.213Z,16.875
2018-10-21T06:55:36.721Z,16.875
2018-10-21T06:55:56.217Z,16.875
2018-10-21T06:56:15.780Z,16.875
2018-10-21T06:56:35.394Z,16.875
2018-10-21T06:56:54.913Z,16.875
2018-10-21T06:57:14.495Z,16.875
2018-10-21T06:57:33.891Z,16.875
2018-10-21T06:57:53.405Z,16.875
2018-10-21T06:58:12.848Z,16.875
2018-10-21T06:58:32.357Z,16.875
2018-10-21T06:58:51.890Z,16.875
2018-10-21T06:59:11.377Z,16.875
2018-10-21T06:59:30.900Z,16.875
2018-10-21T06:59:50.416Z,16.875
2018-10-21T07:00:09.974Z,16.875
2018-10-21T07:00:29.502Z,16.875
2018-10-21T07:00:49.000Z,16.875
2018-10-21T07:01:08.525Z,16.875
2018-10-21T07:01:28.045Z,16.875
2018-10-21T07:01:47.572Z,22.5
2018-10-21T07:02:07.106Z,22.5
2018-10-21T07:02:26.603Z,22.5
2018-10-21T07:02:47.208Z,22.5
2018-10-21T07:03:06.760Z,22.5
2018-10-21T07:03:26.246Z,22.5
2018-10-21T07:03:45.750Z,22.5
2018-10-21T07:04:06.378Z,22.5
2018-10-21T07:04:25.786Z,22.5
2018-10-21T07:04:45.290Z,22.5
2018-10-21T07:05:05.880Z,22.5
2018-10-21T07:05:25.343Z,22.5
2018-10-21T07:05:44.866Z,22.5
2018-10-21T07:06:04.366Z,22.5
2018-10-21T07:06:23.915Z,22.5
2018-10-21T07:06:43.430Z,28.125
2018-10-21T07:07:03.933Z,28.125
2018-10-21T07:07:23.452Z,28.125
2018-10-21T07:07:43.011Z,28.125
2018-10-21T07:08:02.515Z,28.125
2018-10-21T07:08:22.080Z,28.125
2018-10-21T07:08:41.606Z,28.125
2018-10-21T07:09:01.133Z,28.125
2018-10-21T07:09:20.623Z,33.75
2018-10-21T07:09:40.113Z,33.75
2018-10-21T07:09:59.610Z,33.75
2018-10-21T07:10:20.111Z,33.75
2018-10-21T07:10:39.616Z,33.75
2018-10-21T07:10:59.142Z,33.75
2018-10-21T07:11:18.652Z,33.75
2018-10-21T07:11:38.144Z,33.75
2018-10-21T07:11:57.714Z,33.75
2018-10-21T07:12:17.254Z,39.375
2018-10-21T07:12:36.760Z,39.375
2018-10-21T07:12:56.336Z,39.375
2018-10-21T07:13:15.830Z,39.375
2018-10-21T07:13:36.318Z,39.375
2018-10-21T07:13:55.842Z,45
2018-10-21T07:14:15.409Z,45
2018-10-21T07:14:34.907Z,45
2018-10-21T07:14:54.421Z,45
2018-10-21T07:15:14.028Z,45
2018-10-21T07:15:33.542Z,45
2018-10-21T07:15:53.117Z,50.625
2018-10-21T07:16:12.608Z,50.625
2018-10-21T07:16:32.146Z,50.625
2018-10-21T07:16:51.677Z,56.25
2018-10-21T07:17:11.079Z,56.25
2018-10-21T07:17:30.590Z,50.625
2018-10-21T07:17:50.171Z,56.25
2018-10-21T07:18:10.663Z,56.25
2018-10-21T07:18:30.198Z,56.25
2018-10-21T07:18:49.708Z,56.25
2018-10-21T07:19:09.203Z,61.875
2018-10-21T07:19:28.732Z,67.5
2018-10-21T07:19:48.251Z,67.5
2018-10-21T07:20:07.822Z,67.5
2018-10-21T07:20:27.346Z,61.875
2018-10-21T07:20:46.869Z,61.875
2018-10-21T07:21:06.397Z,73.125
2018-10-21T07:21:25.897Z,73.125
2018-10-21T07:21:45.402Z,73.125
2018-10-21T07:22:04.965Z,73.125
2018-10-21T07:22:24.422Z,73.125
2018-10-21T07:22:43.910Z,73.125
2018-10-21T07:23:03.477Z,73.125
2018-10-21T07:23:22.998Z,67.5
2018-10-21T07:23:42.523Z,73.125
2018-10-21T07:24:02.089Z,73.125
2018-10-21T07:24:21.579Z,67.5
2018-10-21T07:24:41.082Z,67.5
2018-10-21T07:25:00.611Z,73.125
2018-10-21T07:25:20.131Z,67.5
2018-10-21T07:25:39.660Z,67.5
2018-10-21T07:25:59.175Z,67.5
2018-10-21T07:26:18.689Z,67.5
2018-10-21T07:26:38.182Z,67.5
2018-10-21T07:26:57.701Z,73.125
2018-10-21T07:27:17.235Z,67.5
2018-10-21T07:27:36.717Z,67.5
2018-10-21T07:27:56.355Z,67.5
2018-10-21T07:28:15.910Z,67.5
2018-10-21T07:28:35.366Z,67.5
2018-10-21T07:28:54.809Z,67.5
2018-10-21T07:29:14.309Z,73.125
2018-10-21T07:29:33.880Z,73.125
2018-10-21T07:29:53.396Z,73.125
2018-10-21T07:30:12.913Z,73.125
2018-10-21T07:30:32.432Z,78.75
2018-10-21T07:30:51.962Z,84.375
2018-10-21T07:31:11.503Z,84.375
2018-10-21T07:31:31.024Z,78.75
2018-10-21T07:31:50.553Z,78.75
2018-10-21T07:32:10.203Z,78.75
2018-10-21T07:32:29.722Z,84.375
2018-10-21T07:32:49.214Z,73.125
2018-10-21T07:33:08.783Z,73.125
2018-10-21T07:33:28.307Z,73.125
2018-10-21T07:33:47.828Z,73.125
2018-10-21T07:34:07.406Z,73.125
2018-10-21T07:34:26.900Z,73.125
2018-10-21T07:34:46.486Z,73.125
2018-10-21T07:35:06.025Z,78.75
2018-10-21T07:35:26.585Z,78.75
2018-10-21T07:35:46.093Z,84.375
2018-10-21T07:36:05.659Z,90
2018-10-21T07:36:25.277Z,95.625
2018-10-21T07:36:44.674Z,95.625
2018-10-21T07:37:04.240Z,95.625
2018-10-21T07:37:23.781Z,101.25
2018-10-21T07:37:43.290Z,101.25
2018-10-21T07:38:02.905Z,101.25
2018-10-21T07:38:22.470Z,95.625
2018-10-21T07:38:42.016Z,90
2018-10-21T07:39:01.511Z,84.375
2018-10-21T07:39:21.048Z,84.375
2018-10-21T07:39:40.575Z,84.375
2018-10-21T07:40:00.135Z,84.375
2018-10-21T07:40:19.779Z,95.625
2018-10-21T07:40:39.185Z,101.25
2018-10-21T07:40:58.711Z,101.25
2018-10-21T07:41:18.282Z,101.25
2018-10-21T07:41:37.850Z,112.5
2018-10-21T07:41:57.382Z,112.5
2018-10-21T07:42:16.939Z,106.875
2018-10-21T07:42:36.529Z,106.875
2018-10-21T07:42:56.068Z,106.875
2018-10-21T07:43:15.673Z,106.875
2018-10-21T07:43:35.204Z,112.5
2018-10-21T07:43:54.718Z,112.5
2018-10-21T07:44:14.261Z,118.125
2018-10-21T07:44:33.795Z,140.625
2018-10-21T07:44:53.298Z,118.125
2018-10-21T07:45:12.841Z,112.5
2018-10-21T07:45:32.363Z,135
2018-10-21T07:45:52.949Z,129.375
2018-10-21T07:46:12.525Z,106.875
2018-10-21T07:46:31.959Z,118.125
2018-10-21T07:46:51.465Z,129.375
2018-10-21T07:47:11.001Z,140.625
2018-10-21T07:47:30.520Z,146.25
2018-10-21T07:47:50.050Z,129.375
2018-10-21T07:48:09.622Z,123.75
2018-10-21T07:48:29.146Z,118.125
2018-10-21T07:48:48.676Z,135
2018-10-21T07:49:08.261Z,135
2018-10-21T07:49:27.727Z,129.375
2018-10-21T07:49:47.293Z,118.125
2018-10-21T07:50:06.794Z,123.75
2018-10-21T07:50:26.329Z,118.125
2018-10-21T07:50:46.888Z,123.75
2018-10-21T07:51:06.378Z,118.125
2018-10-21T07:51:25.890Z,112.5
2018-10-21T07:51:45.397Z,106.875
2018-10-21T07:52:04.970Z,112.5
2018-10-21T07:52:25.417Z,146.25
2018-10-21T07:52:44.924Z,146.25
2018-10-21T07:53:04.447Z,140.625
2018-10-21T07:53:24.004Z,123.75
2018-10-21T07:53:43.539Z,112.5
2018-10-21T07:54:04.045Z,118.125
2018-10-21T07:54:23.543Z,118.125
2018-10-21T07:54:43.033Z,123.75
2018-10-21T07:55:02.605Z,135
2018-10-21T07:55:22.168Z,123.75
2018-10-21T07:55:41.675Z,123.75
2018-10-21T07:56:01.073Z,123.75
2018-10-21T07:56:21.590Z,129.375
2018-10-21T07:56:41.166Z,140.625
2018-10-21T07:57:01.712Z,123.75
2018-10-21T07:57:21.263Z,129.375
2018-10-21T07:57:40.779Z,135
2018-10-21T07:58:00.310Z,129.375
2018-10-21T07:58:20.877Z,146.25
2018-10-21T07:58:40.401Z,140.625
2018-10-21T07:58:59.967Z,123.75
2018-10-21T07:59:19.475Z,118.125
2018-10-21T07:59:39.022Z,123.75
2018-10-21T07:59:58.538Z,123.75
2018-10-21T08:00:18.099Z,112.5
2018-10-21T08:00:37.624Z,118.125
2018-10-21T08:00:57.200Z,118.125
2018-10-21T08:01:16.704Z,106.875
2018-10-21T08:01:36.158Z,106.875
2018-10-21T08:01:55.684Z,106.875
2018-10-21T08:02:15.204Z,112.5
2018-10-21T08:02:34.749Z,123.75
2018-10-21T08:02:54.293Z,168.75
2018-10-21T08:03:13.800Z,191.25
2018-10-21T08:03:33.401Z,230.625
2018-10-21T08:03:52.915Z,247.5
2018-10-21T08:04:12.471Z,247.5
2018-10-21T08:04:31.982Z,253.125
2018-10-21T08:04:51.481Z,253.125
2018-10-21T08:05:11.013Z,230.625
2018-10-21T08:05:30.526Z,236.25
2018-10-21T08:05:50.029Z,253.125
2018-10-21T08:06:09.550Z,264.375
2018-10-21T08:06:29.089Z,270
2018-10-21T08:06:48.642Z,275.625
2018-10-21T08:07:08.200Z,275.625
2018-10-21T08:07:27.695Z,281.25
2018-10-21T08:07:47.200Z,286.875
2018-10-21T08:08:06.881Z,286.875
2018-10-21T08:08:26.459Z,286.875
2018-10-21T08:08:46.043Z,286.875
2018-10-21T08:09:05.506Z,286.875
2018-10-21T08:09:25.019Z,292.5
2018-10-21T08:09:44.536Z,292.5
2018-10-21T08:10:04.125Z,292.5
2018-10-21T08:10:24.658Z,298.125
2018-10-21T08:10:44.379Z,298.125
2018-10-21T08:11:03.886Z,298.125
2018-10-21T08:11:23.445Z,303.75
2018-10-21T08:11:42.995Z,298.125
2018-10-21T08:12:02.521Z,298.125
2018-10-21T08:12:22.065Z,298.125
2018-10-21T08:12:41.608Z,275.625
2018-10-21T08:13:01.116Z,208.125
2018-10-21T08:13:20.664Z,174.375
2018-10-21T08:13:40.225Z,140.625
2018-10-21T08:13:59.767Z,123.75
2018-10-21T08:14:19.309Z,123.75
2018-10-21T08:14:38.891Z,123.75
2018-10-21T08:14:58.395Z,123.75
2018-10-21T08:15:18.004Z,118.125
2018-10-21T08:15:37.408Z,118.125
2018-10-21T08:15:57.029Z,123.75
2018-10-21T08:16:16.617Z,129.375
2018-10-21T08:16:36.135Z,146.25
2018-10-21T08:16:55.694Z,129.375
2018-10-21T08:17:15.233Z,123.75
2018-10-21T08:17:34.769Z,123.75
2018-10-21T08:17:54.275Z,129.375
2018-10-21T08:18:13.773Z,123.75
2018-10-21T08:18:33.333Z,129.375
2018-10-21T08:18:52.843Z,123.75
2018-10-21T08:19:12.384Z,123.75
2018-10-21T08:19:31.916Z,123.75
2018-10-21T08:19:51.462Z,135
2018-10-21T08:20:10.949Z,140.625
2018-10-21T08:20:30.481Z,135
2018-10-21T08:20:49.990Z,168.75
2018-10-21T08:21:09.602Z,140.625
2018-10-21T08:21:29.080Z,151.875
2018-10-21T08:21:48.651Z,146.25
2018-10-21T08:22:08.246Z,163.125
2018-10-21T08:22:27.690Z,168.75
2018-10-21T08:22:47.202Z,174.375
2018-10-21T08:23:06.762Z,213.75
2018-10-21T08:23:26.330Z,219.375
2018-10-21T08:23:45.918Z,275.625
2018-10-21T08:24:05.429Z,309.375
2018-10-21T08:24:24.942Z,298.125
2018-10-21T08:24:44.492Z,309.375
2018-10-21T08:25:04.004Z,315
2018-10-21T08:25:23.550Z,315
2018-10-21T08:25:44.091Z,315
2018-10-21T08:26:03.595Z,309.375
2018-10-21T08:26:23.188Z,315
2018-10-21T08:26:42.698Z,315
2018-10-21T08:27:02.238Z,315
2018-10-21T08:27:21.955Z,315
2018-10-21T08:27:41.305Z,315
2018-10-21T08:28:01.791Z,315
2018-10-21T08:28:21.324Z,315
2018-10-21T08:28:41.005Z,315
2018-10-21T08:29:00.514Z,315
2018-10-21T08:29:20.018Z,320.625
2018-10-21T08:29:39.527Z,320.625
2018-10-21T08:29:59.031Z,320.625
2018-10-21T08:30:18.588Z,320.625
2018-10-21T08:30:38.112Z,315
2018-10-21T08:30:57.698Z,315
2018-10-21T08:31:17.256Z,326.25
2018-10-21T08:31:36.789Z,320.625
2018-10-21T08:31:57.334Z,320.625
2018-10-21T08:32:16.855Z,320.625
2018-10-21T08:32:36.429Z,320.625
2018-10-21T08:32:56.007Z,320.625
2018-10-21T08:33:15.530Z,320.625
2018-10-21T08:33:35.100Z,320.625
2018-10-21T08:33:54.743Z,320.625
2018-10-21T08:34:14.339Z,320.625
2018-10-21T08:34:33.758Z,320.625
2018-10-21T08:34:53.320Z,320.625
2018-10-21T08:35:12.836Z,320.625
2018-10-21T08:35:32.334Z,320.625
2018-10-21T08:35:51.890Z,326.25
2018-10-21T08:36:11.412Z,326.25
2018-10-21T08:36:30.950Z,326.25
2018-10-21T08:36:50.481Z,326.25
2018-10-21T08:37:10.033Z,331.875
2018-10-21T08:37:29.540Z,331.875
2018-10-21T08:37:49.125Z,331.875
2018-10-21T08:38:08.649Z,331.875
2018-10-21T08:38:28.289Z,337.5
2018-10-21T08:38:47.872Z,337.5
2018-10-21T08:39:07.583Z,337.5
2018-10-21T08:39:27.106Z,331.875
2018-10-21T08:39:46.620Z,337.5
2018-10-21T08:40:06.212Z,337.5
2018-10-21T08:40:25.700Z,337.5
2018-10-21T08:40:45.187Z,337.5
2018-10-21T08:41:04.719Z,337.5
2018-10-21T08:41:24.243Z,331.875
2018-10-21T08:41:44.766Z,331.875
2018-10-21T08:42:05.293Z,331.875
2018-10-21T08:42:24.826Z,331.875
2018-10-21T08:42:44.339Z,337.5
2018-10-21T08:43:03.874Z,337.5
2018-10-21T08:43:23.388Z,337.5
2018-10-21T08:43:43.914Z,337.5
2018-10-21T08:44:03.482Z,343.125
2018-10-21T08:44:23.013Z,343.125
2018-10-21T08:44:42.523Z,343.125
2018-10-21T08:45:02.032Z,343.125
2018-10-21T08:45:21.525Z,343.125
2018-10-21T08:45:41.075Z,343.125
2018-10-21T08:46:00.618Z,343.125
2018-10-21T08:46:20.266Z,343.125
2018-10-21T08:46:39.718Z,348.75
2018-10-21T08:46:59.182Z,348.75
2018-10-21T08:47:18.705Z,348.75
2018-10-21T08:47:38.282Z,348.75
2018-10-21T08:47:58.824Z,354.375
2018-10-21T08:48:18.359Z,354.375
2018-10-21T08:48:38.051Z,354.375
2018-10-21T08:48:57.724Z,354.375
2018-10-21T08:49:17.379Z,354.375
2018-10-21T08:49:36.853Z,354.375
2018-10-21T08:49:56.535Z,354.375
2018-10-21T08:50:16.016Z,354.375
2018-10-21T08:50:36.550Z,354.375
2018-10-21T08:50:56.109Z,354.375
2018-10-21T08:51:16.659Z,354.375
2018-10-21T08:51:36.241Z,354.375
2018-10-21T08:51:55.784Z,354.375
2018-10-21T08:52:15.398Z,354.375
2018-10-21T08:52:34.862Z,354.375
2018-10-21T08:52:54.412Z,354.375
2018-10-21T08:53:13.943Z,354.375
2018-10-21T08:53:33.484Z,354.375
2018-10-21T08:53:53.019Z,354.375
2018-10-21T08:54:12.633Z,354.375
2018-10-21T08:54:32.166Z,354.375
2018-10-21T08:54:51.755Z,354.375
2018-10-21T08:55:11.354Z,354.375
2018-10-21T08:55:30.854Z,354.375
2018-10-21T08:55:50.473Z,354.375
2018-10-21T08:56:09.923Z,354.375
2018-10-21T08:56:29.448Z,354.375
2018-10-21T08:56:48.955Z,354.375
2018-10-21T08:57:08.495Z,354.375
2018-10-21T08:57:28.015Z,354.375
2018-10-21T08:57:47.529Z,354.375
2018-10-21T08:58:07.099Z,354.375
2018-10-21T08:58:26.593Z,354.375
2018-10-21T08:58:46.185Z,354.375
2018-10-21T08:59:05.825Z,354.375
2018-10-21T08:59:25.392Z,354.375
2018-10-21T08:59:44.963Z,354.375
2018-10-21T09:00:04.491Z,354.375
2018-10-21T09:00:24.144Z,354.375
2018-10-21T09:00:43.718Z,354.375
2018-10-21T09:01:03.275Z,354.375
2018-10-21T09:01:22.786Z,354.375
2018-10-21T09:01:42.329Z,354.375
2018-10-21T09:02:01.896Z,354.375
2018-10-21T09:02:21.419Z,354.375
2018-10-21T09:02:40.954Z,354.375
2018-10-21T09:03:00.505Z,354.375
2018-10-21T09:03:20.026Z,354.375
2018-10-21T09:03:39.784Z,354.375
2018-10-21T09:03:59.331Z,354.375
2018-10-21T09:04:19.032Z,354.375
2018-10-21T09:04:38.480Z,354.375
2018-10-21T09:04:58.002Z,354.375
2018-10-21T09:05:17.498Z,354.375
2018-10-21T09:05:37.997Z,354.375
2018-10-21T09:05:57.540Z,354.375
2018-10-21T09:06:18.053Z,354.375
2018-10-21T09:06:37.577Z,354.375
2018-10-21T09:06:57.102Z,354.375
2018-10-21T09:07:16.625Z,354.375
2018-10-21T09:07:36.108Z,354.375
2018-10-21T09:07:55.672Z,354.375
2018-10-21T09:08:15.243Z,354.375
2018-10-21T09:08:35.750Z,360
2018-10-21T09:08:55.252Z,354.375
2018-10-21T09:09:14.884Z,360
2018-10-21T09:09:34.443Z,360
2018-10-21T09:09:53.966Z,360
2018-10-21T09:10:13.555Z,360
2018-10-21T09:10:33.059Z,360
2018-10-21T09:10:52.557Z,360
2018-10-21T09:11:12.079Z,360
2018-10-21T09:11:31.608Z,360
2018-10-21T09:11:51.173Z,360
2018-10-21T09:12:10.695Z,360
2018-10-21T09:12:31.242Z,360
2018-10-21T09:12:50.797Z,360
2018-10-21T09:13:11.466Z,360
2018-10-21T09:13:30.917Z,360
2018-10-21T09:13:50.452Z,360
2018-10-21T09:14:09.985Z,360
2018-10-21T09:14:29.558Z,360
2018-10-21T09:14:49.085Z,360
2018-10-21T09:15:08.798Z,360
2018-10-21T09:15:28.203Z,360
2018-10-21T09:15:47.709Z,360
2018-10-21T09:16:07.356Z,365.625
2018-10-21T09:16:26.748Z,365.625
2018-10-21T09:16:46.404Z,360
2018-10-21T09:17:05.753Z,360
2018-10-21T09:17:25.270Z,365.625
2018-10-21T09:17:44.766Z,365.625
2018-10-21T09:18:04.303Z,365.625
2018-10-21T09:18:24.790Z,365.625
2018-10-21T09:18:44.309Z,365.625
2018-10-21T09:19:03.871Z,365.625
2018-10-21T09:19:23.371Z,371.25
2018-10-21T09:19:42.898Z,371.25
2018-10-21T09:20:02.410Z,376.875
2018-10-21T09:20:21.940Z,371.25
2018-10-21T09:20:41.472Z,371.25
2018-10-21T09:21:00.978Z,371.25
2018-10-21T09:21:20.477Z,371.25
2018-10-21T09:21:39.991Z,376.875
2018-10-21T09:21:59.541Z,376.875
2018-10-21T09:22:19.083Z,376.875
2018-10-21T09:22:38.572Z,376.875
2018-10-21T09:22:59.094Z,382.5
2018-10-21T09:23:18.645Z,382.5
2018-10-21T09:23:38.165Z,382.5
2018-10-21T09:23:57.667Z,382.5
2018-10-21T09:24:17.188Z,382.5
2018-10-21T09:24:36.770Z,388.125
2018-10-21T09:24:56.318Z,382.5
2018-10-21T09:25:15.823Z,388.125
2018-10-21T09:25:35.277Z,388.125
2018-10-21T09:25:54.827Z,388.125
2018-10-21T09:26:14.354Z,388.125
2018-10-21T09:26:33.857Z,388.125
2018-10-21T09:26:53.400Z,388.125
2018-10-21T09:27:12.916Z,388.125
2018-10-21T09:27:32.554Z,393.75
2018-10-21T09:27:51.985Z,393.75
2018-10-21T09:28:11.638Z,393.75
2018-10-21T09:28:31.060Z,393.75
2018-10-21T09:28:50.583Z,399.375
2018-10-21T09:29:10.267Z,405
2018-10-21T09:29:29.831Z,405
2018-10-21T09:29:49.351Z,405
2018-10-21T09:30:08.853Z,405
2018-10-21T09:30:28.386Z,405
2018-10-21T09:30:48.009Z,410.625
2018-10-21T09:31:07.576Z,410.625
2018-10-21T09:31:27.028Z,416.25
2018-10-21T09:31:46.591Z,416.25
2018-10-21T09:32:06.123Z,421.875
2018-10-21T09:32:25.639Z,421.875
2018-10-21T09:32:46.177Z,421.875
2018-10-21T09:33:05.710Z,421.875
2018-10-21T09:33:25.262Z,421.875
2018-10-21T09:33:44.757Z,427.5
2018-10-21T09:34:05.284Z,427.5
2018-10-21T09:34:24.777Z,433.125
2018-10-21T09:34:44.409Z,427.5
2018-10-21T09:35:03.941Z,427.5
2018-10-21T09:35:23.456Z,433.125
2018-10-21T09:35:42.954Z,433.125
2018-10-21T09:36:02.457Z,433.125
2018-10-21T09:36:21.974Z,433.125
2018-10-21T09:36:41.479Z,433.125
2018-10-21T09:37:01.056Z,433.125
2018-10-21T09:37:21.504Z,433.125
2018-10-21T09:37:41.022Z,433.125
2018-10-21T09:38:00.536Z,433.125
2018-10-21T09:38:20.045Z,433.125
2018-10-21T09:38:39.547Z,438.75
2018-10-21T09:38:59.132Z,438.75
2018-10-21T09:39:18.652Z,444.375
2018-10-21T09:39:38.281Z,444.375
2018-10-21T09:39:57.853Z,444.375
2018-10-21T09:40:17.390Z,444.375
2018-10-21T09:40:36.891Z,450
2018-10-21T09:40:56.388Z,450
2018-10-21T09:41:15.895Z,455.625
2018-10-21T09:41:35.406Z,455.625
2018-10-21T09:41:54.940Z,455.625
2018-10-21T09:42:14.475Z,455.625
2018-10-21T09:42:33.956Z,455.625
2018-10-21T09:42:54.463Z,455.625
2018-10-21T09:43:14.149Z,455.625
2018-10-21T09:43:33.520Z,466.875
2018-10-21T09:43:53.048Z,461.25
2018-10-21T09:44:12.578Z,461.25
2018-10-21T09:44:32.121Z,461.25
2018-10-21T09:44:51.885Z,461.25
2018-10-21T09:45:11.441Z,466.875
2018-10-21T09:45:30.943Z,466.875
2018-10-21T09:45:50.464Z,466.875
2018-10-21T09:46:10.010Z,461.25
2018-10-21T09:46:29.481Z,466.875
2018-10-21T09:46:49.005Z,466.875
2018-10-21T09:47:08.523Z,466.875
2018-10-21T09:47:28.121Z,466.875
2018-10-21T09:47:47.668Z,466.875
2018-10-21T09:48:07.249Z,466.875
2018-10-21T09:48:26.753Z,466.875
2018-10-21T09:48:46.264Z,466.875
2018-10-21T09:49:05.810Z,466.875
2018-10-21T09:49:25.323Z,466.875
2018-10-21T09:49:45.606Z,466.875
2018-10-21T09:50:05.108Z,472.5
2018-10-21T09:50:25.541Z,472.5
2018-10-21T09:50:45.114Z,472.5
2018-10-21T09:51:05.642Z,472.5
2018-10-21T09:51:25.177Z,472.5
2018-10-21T09:51:44.691Z,472.5
2018-10-21T09:52:04.254Z,472.5
2018-10-21T09:52:23.735Z,472.5
2018-10-21T09:52:43.241Z,478.125
2018-10-21T09:53:02.829Z,483.75
2018-10-21T09:53:22.382Z,489.375
2018-10-21T09:53:41.885Z,500.625
2018-10-21T09:54:01.646Z,511.875
2018-10-21T09:54:22.186Z,523.125
2018-10-21T09:54:41.755Z,540
2018-10-21T09:55:01.336Z,545.625
2018-10-21T09:55:20.818Z,562.5
2018-10-21T09:55:40.609Z,573.75